Flight Track Log - Related Links

Times and Time Zones

All times are in EDT time to prevent confusion due to time zone crossing. See the UAL395 flight status page for this flight to view local times or setup timezone preferences in your user account.

Time Position Orientation Groundspeed Altitude Reporting Facility
EDT Latitude Longitude Course Direction KTS MPH feet Rate Location/Type
Mon 08:22:06 PM 41.9500 -87.9333 270° West 143 165 3,100  Level Chicago TRACON
Mon 08:23:00 PM 41.9500 -87.9833 270° West 151 174 4,200 1,450 Climbing Chicago TRACON
Mon 08:24:06 PM 41.9333 -88.0667 255° West 229 264 6,000 2,550 Climbing Chicago TRACON
Mon 08:25:00 PM 41.9333 -88.1333 270° West 213 245 9,300 3,264 Climbing Chicago TRACON
Mon 08:26:11 PM 41.9272 -88.2394 266° West 230 265 12,800 2,273 Climbing Chicago Center
Mon 08:27:12 PM 41.8856 -88.3283 238° Southwest 291 335 14,300 2,195 Climbing Chicago Center
Mon 08:28:14 PM 41.8492 -88.4244 243° Southwest 293 337 17,300 2,758 Climbing Chicago Center
Mon 08:29:16 PM 41.8256 -88.5308 253° West 300 345 20,000 2,177 Climbing Chicago Center
Mon 08:30:18 PM 41.7997 -88.6406 253° West 309 356 21,800 1,902 Climbing Chicago Center
Mon 08:31:19 PM 41.7719 -88.7592 253° West 331 381 23,900 2,000 Climbing Chicago Center
Mon 08:32:21 PM 41.7386 -88.9058 253° West 344 396 25,900 1,548 Climbing Chicago Center
Mon 08:33:23 PM 41.7094 -89.0308 253° West 354 407 27,100 976 Climbing Chicago Center
Mon 08:34:24 PM 41.6792 -89.1606 253° West 365 420 27,900 829 Climbing Chicago Center
Mon 08:35:26 PM 41.6483 -89.2908 252° West 371 427 28,800 774 Climbing Chicago Center
Mon 08:36:28 PM 41.6172 -89.4242 253° West 376 433 29,500 778 Climbing Chicago Center
Mon 08:38:31 PM 41.5458 -89.7233 252° West 395 455 31,200 811 Climbing Chicago Center
Mon 08:39:33 PM 41.5114 -89.8661 252° West 402 463 32,000 823 Climbing Chicago Center
Mon 08:40:35 PM 41.4775 -90.0083 252° West 405 466 32,900 532 Climbing Chicago Center
Mon 08:41:37 PM 41.4419 -90.1511 252° West 407 468 33,100 488 Climbing Chicago Center
Mon 08:42:38 PM 41.4003 -90.3242 252° West 411 473 33,900 439 Climbing Chicago Center
Mon 08:43:40 PM 41.3639 -90.4717 252° West 415 478 34,000 48 Climbing Chicago Center
Mon 08:44:42 PM 41.3264 -90.6244 252° West 424 488 34,000  Level Chicago Center
Mon 08:45:44 PM 41.2922 -90.7828 254° West 439 505 34,000  Level Chicago Center
Mon 08:46:00 PM 41.2793 -90.8114 254° West  Level FlightAware Approximate
Mon 08:46:45 PM 41.2606 -90.9369 255° West 437 503 34,000  Level Chicago Center
Mon 08:47:47 PM 41.2294 -91.0917 255° West 436 502 34,000  Level Chicago Center
Mon 08:48:49 PM 41.1972 -91.2458 255° West 436 502 34,000  Level Chicago Center
Mon 08:49:51 PM 41.1592 -91.4286 255° West 430 495 34,000  Level Chicago Center
Mon 08:50:52 PM 41.1278 -91.5803 255° West 429 494 34,000 390 Level Chicago Center
Mon 08:51:54 PM 41.0958 -91.7322 254° West 426 490 34,800 484 Climbing Chicago Center
Mon 08:52:56 PM 41.0642 -91.8825 254° West 426 490 35,000 145 Climbing Chicago Center
Mon 08:53:58 PM 41.0308 -92.0314 254° West 426 490 35,100 244 Climbing Chicago Center
Mon 08:54:59 PM 40.9989 -92.1844 255° West 431 496 35,500 439 Climbing Chicago Center
Mon 08:56:01 PM 40.9594 -92.3667 254° West 434 499 36,000 242 Climbing Chicago Center
Mon 08:57:03 PM 40.9258 -92.5186 254° West 435 501 36,000  Level Chicago Center
Mon 08:58:05 PM 40.8919 -92.6725 254° West 440 506 36,000  Level Chicago Center
Mon 08:59:06 PM 40.8578 -92.8253 254° West 441 507 36,000  Level Chicago Center
Mon 09:00:08 PM 40.8228 -92.9822 254° West 447 514 36,000  Level Chicago Center
Mon 09:01:10 PM 40.7806 -93.1653 253° West 443 510 36,000  Level Chicago Center
Mon 09:02:12 PM 40.7472 -93.3169 254° West 437 503 36,000 -484 Level Chicago Center
Mon 09:03:14 PM 40.7128 -93.4667 253° West 433 498 35,000 -1,171 Descending Chicago Center
Mon 09:04:15 PM 40.6789 -93.6133 253° West 424 488 33,600 -1,545 Descending Chicago Center
Mon 09:04:55 PM 40.6578 -93.6992 252° West 423 487 32,400 -1,981 Descending Minneapolis Center
Mon 09:05:58 PM 40.6158 -93.8731 252° West 419 482 30,200 -1,152 Descending Minneapolis Center
Mon 09:07:00 PM 40.5836 -94.0203 254° West 422 486 30,000 -97 Descending Minneapolis Center
Mon 09:08:02 PM 40.5592 -94.1733 258° West 428 493 30,000  Level Minneapolis Center
Mon 09:09:04 PM 40.5347 -94.3247 258° West 429 494 30,000  Level Minneapolis Center
Mon 09:10:06 PM 40.5028 -94.5039 257° West 425 489 30,000  Level Minneapolis Center
Mon 09:11:20 PM 40.4775 -94.6544 258° West 418 481 30,000  Level Minneapolis Center
Mon 09:12:23 PM 40.4472 -94.8336 258° West 419 482 30,000  Level Minneapolis Center
Mon 09:13:25 PM 40.4197 -94.9847 257° West 423 487 30,000  Level Minneapolis Center
Mon 09:14:27 PM 40.3942 -95.1353 257° West 422 486 30,000  Level Minneapolis Center
Mon 09:15:29 PM 40.3681 -95.2847 257° West 421 484 30,000  Level Minneapolis Center
Mon 09:16:31 PM 40.3361 -95.4636 257° West 419 482 30,000  Level Minneapolis Center
Mon 09:17:33 PM 40.3089 -95.6119 257° West 419 482 30,000  Level Minneapolis Center
Mon 09:18:35 PM 40.2822 -95.7611 257° West 419 482 30,000  Level Minneapolis Center
Mon 09:19:37 PM 40.2544 -95.9089 256° West 418 481 30,000  Level Minneapolis Center
Mon 09:20:39 PM 40.2275 -96.0578 257° West 418 481 30,000  Level Minneapolis Center
Mon 09:21:41 PM 40.2047 -96.1758 256° West 418 481 30,000  Level Minneapolis Center
Mon 09:22:43 PM 40.1683 -96.3522 255° West 419 482 30,000  Level Minneapolis Center
Mon 09:23:45 PM 40.1306 -96.5264 254° West 416 479 30,000  Level Minneapolis Center
Mon 09:24:47 PM 40.0981 -96.6744 254° West 419 482 30,000  Level Minneapolis Center
Mon 09:25:49 PM 40.0661 -96.8206 254° West 419 482 30,000  Level Minneapolis Center
Mon 09:27:00 PM 40.0201 -96.9875 250° West  Level FlightAware Approximate
Mon 09:28:05 PM 39.9947 -97.1425 254° West 419 482 30,000  Level Minneapolis Center
Mon 09:31:00 PM 39.8969 -97.5600 253° West  Level FlightAware Approximate
Mon 09:31:24 PM 39.8811 -97.6458 253° West 420 483 30,000  Level Minneapolis Center
Mon 09:32:26 PM 39.8475 -97.7922 253° West 420 483 30,000 293 Level Minneapolis Center
Mon 09:33:27 PM 39.8133 -97.9381 253° West 421 484 30,600 780 Climbing Minneapolis Center
Mon 09:34:00 PM 39.7890 -97.9906 254° West  Level FlightAware Approximate
Mon 09:34:29 PM 39.7783 -98.0878 253° West 428 493 31,600  Level Minneapolis Center
Mon 09:35:31 PM 39.7447 -98.2361 254° West 428 493 32,000 194 Climbing Minneapolis Center
Mon 09:36:33 PM 39.7106 -98.3819 253° West 424 488 32,000  Level Minneapolis Center
Mon 09:37:35 PM 39.6756 -98.5275 253° West 423 487 32,000  Level Minneapolis Center
Mon 09:38:36 PM 39.6481 -98.6450 253° West 423 487 32,000  Level Minneapolis Center
Mon 09:39:38 PM 39.6061 -98.8222 253° West 426 490 32,000  Level Minneapolis Center
Mon 09:40:40 PM 39.5639 -98.9961 253° West 423 487 32,000  Level Minneapolis Center
Mon 09:41:42 PM 39.5281 -99.1417 252° West 423 487 32,000  Level Minneapolis Center
Mon 09:42:44 PM 39.4925 -99.2872 252° West 423 487 32,000  Level Minneapolis Center
Mon 09:43:46 PM 39.4564 -99.4325 252° West 424 488 32,000  Level Minneapolis Center
Mon 09:44:47 PM 39.4206 -99.5794 253° West 426 490 32,000  Level Minneapolis Center
Mon 09:45:49 PM 39.3917 -99.6964 252° West 427 491 32,000  Level Minneapolis Center
Mon 09:46:51 PM 39.3481 -99.8747 253° West 429 494 32,000  Level Minneapolis Center
Mon 09:47:53 PM 39.3097 -100.0289 252° West 428 493 32,000  Level Minneapolis Center
Mon 09:49:07 PM 39.2600 -100.2164 251° West 429 494 32,000  Level Denver Center
Mon 09:50:09 PM 39.2239 -100.3889 255° West 439 505 32,000  Level Denver Center
Mon 09:51:11 PM 39.1931 -100.5353 255° West 441 507 32,000  Level Denver Center
Mon 09:52:12 PM 39.1644 -100.6736 255° West 422 486 32,000  Level Denver Center
Mon 09:53:14 PM 39.1294 -100.8347 254° West 420 483 32,000  Level Denver Center
Mon 09:54:16 PM 39.0994 -100.9706 254° West 414 476 32,000 -49 Level Denver Center
Mon 09:55:17 PM 39.0661 -101.1300 255° West 413 475 31,900  Descending Denver Center
Mon 09:56:19 PM 39.0358 -101.2678 254° West 418 481 32,000 48 Climbing Denver Center
Mon 09:57:21 PM 39.0017 -101.4242 254° West 421 484 32,000  Level Denver Center
Mon 09:58:22 PM 38.9703 -101.5622 254° West 422 486 32,000  Level Denver Center
Mon 09:59:24 PM 38.9331 -101.7292 254° West 437 503 32,000  Level Denver Center
Mon 10:00:27 PM 38.9019 -101.8703 254° West 434 499 32,000  Level Denver Center
Mon 10:01:29 PM 38.8650 -102.0350 254° West 432 497 32,000  Level Denver Center
Mon 10:02:30 PM 38.8328 -102.1761 254° West 433 498 32,000  Level Denver Center
Mon 10:03:32 PM 38.7956 -102.3397 254° West 429 494 32,000  Level Denver Center
Mon 10:04:33 PM 38.7642 -102.4764 254° West 421 484 32,000  Level Denver Center
Mon 10:05:35 PM 38.7303 -102.6153 253° West 426 490 32,000  Level Denver Center
Mon 10:06:37 PM 38.6928 -102.7817 254° West 422 486 32,000  Level Denver Center
Mon 10:07:38 PM 38.6572 -102.9292 253° West 419 482 32,000  Level Denver Center
Mon 10:08:40 PM 38.6242 -103.0733 254° West 423 487 32,000  Level Denver Center
Mon 10:09:42 PM 38.5892 -103.2169 253° West 423 487 32,000  Level Denver Center
Mon 10:10:44 PM 38.5531 -103.3706 253° West 425 489 32,000 48 Level Denver Center
Mon 10:11:46 PM 38.5189 -103.5156 253° West 426 490 32,100  Climbing Denver Center
Mon 10:12:48 PM 38.4856 -103.6511 253° West 420 483 32,000 97 Descending Denver Center
Mon 10:13:50 PM 38.4472 -103.8103 253° West 421 484 32,300 532 Climbing Denver Center
Mon 10:14:52 PM 38.4136 -103.9447 252° West 418 481 33,100 726 Climbing Denver Center
Mon 10:15:54 PM 38.3753 -104.1008 253° West 416 479 33,800 435 Climbing Denver Center
Mon 10:16:56 PM 38.3406 -104.2411 253° West 415 478 34,000 97 Climbing Denver Center
Mon 10:17:58 PM 38.3042 -104.3903 253° West 414 476 34,000  Level Denver Center
Mon 10:19:00 PM 38.2589 -104.5178 246° West 414 476 34,000  Level Denver Center
Mon 10:20:02 PM 38.2006 -104.6644 243° Southwest 417 480 34,000  Level Denver Center
Mon 10:21:15 PM 38.1497 -104.7906 243° Southwest 418 481 34,000  Level Denver Center
Mon 10:22:17 PM 38.0911 -104.9369 243° Southwest 418 481 34,000  Level Denver Center
Mon 10:23:20 PM 38.0303 -105.0844 242° Southwest 422 486 34,000  Level Denver Center
Mon 10:24:22 PM 37.9708 -105.2319 243° Southwest 422 486 34,000  Level Denver Center
Mon 10:25:23 PM 37.9200 -105.3547 242° Southwest 416 479 34,000  Level Denver Center
Mon 10:26:25 PM 37.8606 -105.4992 243° Southwest 415 478 34,000  Level Denver Center
Mon 10:27:27 PM 37.8103 -105.6244 243° Southwest 418 481 34,000  Level Denver Center
Mon 10:28:29 PM 37.7503 -105.7689 242° Southwest 414 476 34,000  Level Denver Center
Mon 10:29:31 PM 37.6989 -105.8894 242° Southwest 410 472 34,000  Level Denver Center
Mon 10:30:33 PM 37.6411 -106.0294 243° Southwest 404 465 34,000  Level Denver Center
Mon 10:31:35 PM 37.5911 -106.1492 242° Southwest 404 465 34,000  Level Denver Center
Mon 10:32:37 PM 37.5378 -106.2750 242° Southwest 406 467 34,000  Level Denver Center
Mon 10:33:39 PM 37.4786 -106.4194 243° Southwest 415 478 34,000  Level Denver Center
Mon 10:34:41 PM 37.4250 -106.5414 241° Southwest 415 478 34,000  Level Denver Center
Mon 10:35:43 PM 37.3636 -106.6847 242° Southwest 416 479 34,000  Level Denver Center
Mon 10:36:45 PM 37.3117 -106.8089 242° Southwest 419 482 34,000  Level Denver Center
Mon 10:37:46 PM 37.2672 -106.9108 241° Southwest 418 481 34,000  Level Denver Center
Mon 10:38:48 PM 37.1978 -107.0739 242° Southwest 416 479 34,000  Level Denver Center
Mon 10:39:50 PM 37.1444 -107.1942 241° Southwest 415 478 34,000  Level Denver Center
Mon 10:40:52 PM 37.0919 -107.3161 242° Southwest 417 480 34,000  Level Denver Center
Mon 10:41:54 PM 37.0375 -107.4381 241° Southwest 420 483 34,000  Level Denver Center
Mon 10:42:56 PM 36.9675 -107.6019 242° Southwest 417 480 34,000  Level Denver Center
Mon 10:43:58 PM 36.9122 -107.7258 241° Southwest 426 490 34,000 48 Level Denver Center
Mon 10:45:00 PM 36.8489 -107.8697 241° Southwest 425 489 34,100  Climbing Denver Center
Mon 10:46:02 PM 36.7944 -107.9947 241° Southwest 427 491 34,000 -48 Descending Denver Center
Mon 10:47:04 PM 36.7403 -108.1397 245° Southwest 418 481 34,000  Level Denver Center
Mon 10:48:18 PM 36.7172 -108.2744 258° West 415 478 34,000  Level Denver Center
Mon 10:49:20 PM 36.6842 -108.4486 257° West 407 468 34,000  Level Denver Center
Mon 10:50:22 PM 36.6597 -108.5792 257° West 406 467 34,000  Level Denver Center
Mon 10:51:24 PM 36.6314 -108.7297 257° West 403 464 34,000  Level Denver Center
Mon 10:52:25 PM 36.6069 -108.8569 257° West 399 459 34,000 98 Level Denver Center
Mon 10:53:27 PM 36.5786 -109.0064 257° West 399 459 34,200 488 Climbing Denver Center
Mon 10:54:28 PM 36.5533 -109.1356 256° West 403 464 35,000 829 Climbing Denver Center
Mon 10:55:30 PM 36.5242 -109.2875 257° West 407 468 35,900 484 Climbing Denver Center
Mon 10:56:32 PM 36.4986 -109.4158 256° West 404 465 36,000 48 Climbing Denver Center
Mon 10:57:34 PM 36.4692 -109.5675 256° West 406 467 36,000  Level Denver Center
Mon 10:58:36 PM 36.4436 -109.6969 256° West 405 466 36,000 -49 Level Denver Center
Mon 10:59:37 PM 36.4144 -109.8433 256° West 396 456 35,900  Descending Denver Center
Mon 11:00:39 PM 36.3894 -109.9703 256° West 395 455 36,000 48 Climbing Denver Center
Mon 11:01:41 PM 36.3628 -110.0997 256° West 401 461 36,000 49 Level Denver Center
Mon 11:02:42 PM 36.3342 -110.2392 256° West 408 470 36,100 49 Climbing Denver Center
Mon 11:03:44 PM 36.3056 -110.3775 256° West 413 475 36,100 -48 Level Denver Center
Mon 11:04:46 PM 36.2725 -110.5408 256° West 409 471 36,000 -48 Descending Denver Center
Mon 11:05:48 PM 36.2447 -110.6758 256° West 406 467 36,000  Level Denver Center
Mon 11:06:50 PM 36.2167 -110.8086 255° West 401 461 36,000  Level Denver Center
Mon 11:07:52 PM 36.1897 -110.9403 256° West 397 457 36,000  Level Denver Center
Mon 11:08:54 PM 36.1619 -111.0736 256° West 399 459 36,000  Level Denver Center
Mon 11:09:56 PM 36.1397 -111.1778 255° West 395 455 36,000  Level Denver Center
Mon 11:10:58 PM 36.0964 -111.3314 251° West 391 450 36,000  Level Denver Center
Mon 11:12:00 PM 36.0361 -111.4783 243° Southwest 398 458 36,000  Level Denver Center
Mon 11:13:01 PM 35.9864 -111.5994 243° Southwest 395 455 36,000  Level Denver Center
Mon 11:14:03 PM 35.9378 -111.7211 244° Southwest 395 455 36,000  Level Denver Center
Mon 11:15:05 PM 35.8872 -111.8428 243° Southwest 397 457 36,000  Level Denver Center
Mon 11:16:06 PM 35.8369 -111.9658 243° Southwest 400 460 36,000  Level Denver Center
Mon 11:17:08 PM 35.7953 -112.0658 243° Southwest 406 467 36,000  Level Denver Center
Mon 11:18:10 PM 35.7350 -112.2131 243° Southwest 402 463 36,000  Level Denver Center
Mon 11:19:12 PM 35.6742 -112.3586 243° Southwest 399 459 36,000  Level Denver Center
Mon 11:20:18 PM 35.6256 -112.4753 243° Southwest 402 463 36,000  Level Los Angeles Center
Mon 11:21:20 PM 35.5644 -112.6211 243° Southwest 403 464 36,000  Level Los Angeles Center
Mon 11:22:21 PM 35.5211 -112.7236 243° Southwest 397 457 36,000  Level Los Angeles Center
Mon 11:23:23 PM 35.4583 -112.8708 242° Southwest 403 464 36,000  Level Los Angeles Center
Mon 11:24:25 PM 35.4083 -112.9883 242° Southwest 408 470 36,000  Level Los Angeles Center
Mon 11:25:27 PM 35.3569 -113.1119 243° Southwest 408 470 36,000  Level Los Angeles Center
Mon 11:26:29 PM 35.3053 -113.2328 242° Southwest 399 459 36,000  Level Los Angeles Center
Mon 11:27:31 PM 35.2503 -113.3631 243° Southwest 398 458 36,000  Level Los Angeles Center
Mon 11:28:32 PM 35.1981 -113.4828 242° Southwest 401 461 36,000  Level Los Angeles Center
Mon 11:29:34 PM 35.1456 -113.6042 242° Southwest 406 467 36,000  Level Los Angeles Center
Mon 11:30:36 PM 35.0931 -113.7256 242° Southwest 408 470 36,000  Level Los Angeles Center
Mon 11:31:38 PM 35.0294 -113.8714 242° Southwest 407 468 36,000  Level Los Angeles Center
Mon 11:32:39 PM 34.9794 -113.9875 242° Southwest 404 465 36,000  Level Los Angeles Center
Mon 11:33:41 PM 34.9272 -114.1069 242° Southwest 400 460 36,000 -581 Level Los Angeles Center
Mon 11:34:43 PM 34.8725 -114.2289 241° Southwest 405 466 34,800 -1,887 Descending Los Angeles Center
Mon 11:35:45 PM 34.8192 -114.3522 242° Southwest 409 471 32,100 -2,323 Descending Los Angeles Center
Mon 11:36:47 PM 34.7400 -114.4986 237° Southwest 428 493 30,000 -1,016 Descending Los Angeles Center
Mon 11:37:49 PM 34.6489 -114.6053 224° Southwest 445 512 30,000 -49 Level Los Angeles Center
Mon 11:38:50 PM 34.5592 -114.7092 224° Southwest 446 513 29,900 -49 Descending Los Angeles Center
Mon 11:39:52 PM 34.4694 -114.8111 223° Southwest 445 512 29,900  Level Los Angeles Center
Mon 11:40:54 PM 34.3794 -114.9125 223° Southwest 443 510 29,900  Level Los Angeles Center
Mon 11:41:56 PM 34.2881 -115.0161 223° Southwest 448 516 29,900  Level Los Angeles Center
Mon 11:42:58 PM 34.1981 -115.1175 223° Southwest 445 512 29,900  Level Los Angeles Center
Mon 11:44:00 PM 34.0883 -115.2419 223° Southwest 450 518 29,900 48 Level Los Angeles Center
Mon 11:45:02 PM 33.9958 -115.3444 223° Southwest 451 519 30,000  Climbing Los Angeles Center
Mon 11:46:04 PM 33.9053 -115.4450 223° Southwest 446 513 29,900 -677 Descending Los Angeles Center
Mon 11:47:06 PM 33.8133 -115.5469 223° Southwest 448 516 28,600 -1,694 Descending Los Angeles Center
Mon 11:48:08 PM 33.7233 -115.6478 223° Southwest 444 511 26,400 -2,177 Descending Los Angeles Center
Mon 11:49:10 PM 33.6356 -115.7453 223° Southwest 434 499 24,100 -1,161 Descending Los Angeles Center
Mon 11:50:12 PM 33.5539 -115.8772 233° Southwest 413 475 24,000 -97 Descending Los Angeles Center
Mon 11:51:14 PM 33.4869 -115.9906 235° Southwest 418 481 23,900 -1,161 Descending Los Angeles Center
Mon 11:52:16 PM 33.3964 -116.0739 218° Southwest 417 480 21,600 -2,177 Descending Los Angeles Center
Mon 11:53:18 PM 33.3089 -116.1572 219° Southwest 405 466 19,400 -2,226 Descending Los Angeles Center
Mon 11:54:20 PM 33.2256 -116.2364 218° Southwest 389 448 17,000 -2,226 Descending Los Angeles Center
Mon 11:55:22 PM 33.1436 -116.3128 218° Southwest 379 436 14,800 -2,371 Descending Los Angeles Center
Mon 11:56:24 PM 33.0497 -116.4022 219° Southwest 365 420 12,100 -1,645 Descending Los Angeles Center
Mon 11:57:26 PM 32.9683 -116.4650 213° Southwest 334 384 11,400 -1,016 Descending Los Angeles Center
Mon 11:58:28 PM 32.8939 -116.5086 206° Southwest 329 379 10,000 -1,258 Descending Los Angeles Center
Mon 11:59:30 PM 32.8303 -116.5606 214° Southwest 300 345 8,800 -919 Descending Los Angeles Center
Tue 12:00:32 AM 32.7864 -116.6514 240° Southwest 269 310 8,100 -726 Descending Los Angeles Center
Tue 12:01:34 AM 32.7508 -116.7242 240° Southwest 259 298 7,300 -968 Descending Los Angeles Center
Tue 12:02:36 AM 32.7164 -116.7978 241° Southwest 257 296 6,100 -823 Descending Los Angeles Center
Tue 12:03:38 AM 32.6892 -116.8714 246° West 249 287 5,600 -1,024 Descending Los Angeles Center
Tue 12:04:39 AM 32.6711 -116.9406 253° West 228 262 4,000 -1,122 Descending Los Angeles Center
Tue 12:05:41 AM 32.6878 -117.0042 287° West 200 230 3,300 -871 Descending Los Angeles Center
Tue 12:06:43 AM 32.7011 -117.0586 286° West 179 206 2,200 -1,065 Descending Los Angeles Center

Login

Don't have an account? Register now (free) for customized features, flight alerts, and more!